ELY007 LLBG-KJFK
Flight info
| Callsign | ELY007 |
|---|---|
| Flight time | N/A |
| Altitude | 36000 |
| Route | SUVAS N128 OTHON UN128 LMO DCT EVIVI L863 OKANA DCT BABIT DCT SASAL DCT DEXIT DCT MAPOX DCT OTMEC DCT RAVLO/N0473F380 Y70 OTBED L60 PENIL M144 BAGSO DCT RINUS DCT OLGON DCT NEBIN/M082F390 NATG TUDEP/N0479F400 N526A TOPPS DCT ENE PARCH4 |
| Aircraft | B772/H-SDE2E3FGHIJ5LORVWXY/LB1D1 |
Departure
| Time | N/A |
|---|---|
| Airport | Ben Gurion International Airport (LLBG) |
Arrival
| Time | 2026-05-03 20:28 |
|---|---|
| Airport | John F. Kennedy International Airport (KJFK) |
| Time | Latitude | Longitude | Altitude | Speed | Heading |
|---|---|---|---|---|---|
| 2026-05-03 20:15 | 40.79759 | -73.04951 | 8586 ft | 281 kts | 241° |
| 2026-05-03 20:15 | 40.78653 | -73.07080 | 8290 ft | 280 kts | 241° |
| 2026-05-03 20:15 | 40.77552 | -73.09201 | 7998 ft | 279 kts | 241° |
| 2026-05-03 20:15 | 40.76458 | -73.11304 | 7708 ft | 277 kts | 241° |
| 2026-05-03 20:16 | 40.75486 | -73.13172 | 7476 ft | 274 kts | 241° |
| 2026-05-03 20:16 | 40.74418 | -73.15225 | 7207 ft | 269 kts | 241° |
| 2026-05-03 20:16 | 40.73367 | -73.17242 | 6938 ft | 264 kts | 241° |
| 2026-05-03 20:16 | 40.72334 | -73.19222 | 6689 ft | 260 kts | 241° |
| 2026-05-03 20:17 | 40.71321 | -73.21164 | 6486 ft | 254 kts | 241° |
| 2026-05-03 20:17 | 40.70329 | -73.23063 | 6278 ft | 250 kts | 241° |
| 2026-05-03 20:17 | 40.69354 | -73.24932 | 6058 ft | 245 kts | 241° |
| 2026-05-03 20:17 | 40.68396 | -73.26765 | 5836 ft | 240 kts | 241° |
| 2026-05-03 20:18 | 40.67458 | -73.28559 | 5602 ft | 235 kts | 241° |
| 2026-05-03 20:18 | 40.66539 | -73.30316 | 5402 ft | 230 kts | 242° |
| 2026-05-03 20:18 | 40.65653 | -73.32010 | 5205 ft | 225 kts | 242° |
| 2026-05-03 20:18 | 40.64777 | -73.33684 | 5029 ft | 219 kts | 242° |
| 2026-05-03 20:19 | 40.63922 | -73.35317 | 4821 ft | 214 kts | 242° |
| 2026-05-03 20:19 | 40.63089 | -73.36910 | 4632 ft | 208 kts | 242° |
| 2026-05-03 20:19 | 40.62280 | -73.38452 | 4486 ft | 200 kts | 242° |
| 2026-05-03 20:19 | 40.61517 | -73.39904 | 4383 ft | 187 kts | 243° |
| 2026-05-03 20:20 | 40.60795 | -73.41279 | 4171 ft | 180 kts | 243° |
| 2026-05-03 20:20 | 40.60092 | -73.42622 | 3992 ft | 176 kts | 243° |
| 2026-05-03 20:20 | 40.59399 | -73.43946 | 3842 ft | 177 kts | 243° |
| 2026-05-03 20:20 | 40.58704 | -73.45275 | 3648 ft | 178 kts | 243° |
| 2026-05-03 20:21 | 40.58013 | -73.46587 | 3425 ft | 171 kts | 243° |
| 2026-05-03 20:21 | 40.57347 | -73.47852 | 3204 ft | 166 kts | 244° |
| 2026-05-03 20:21 | 40.56697 | -73.49086 | 2984 ft | 162 kts | 243° |
| 2026-05-03 20:21 | 40.56062 | -73.50290 | 2840 ft | 160 kts | 243° |
| 2026-05-03 20:22 | 40.55429 | -73.51494 | 2732 ft | 159 kts | 244° |
| 2026-05-03 20:22 | 40.55010 | -73.52775 | 2594 ft | 150 kts | 267° |
| 2026-05-03 20:22 | 40.54910 | -73.54123 | 2572 ft | 152 kts | 264° |
| 2026-05-03 20:22 | 40.54721 | -73.55474 | 2451 ft | 146 kts | 283° |
| 2026-05-03 20:23 | 40.55238 | -73.56570 | 2382 ft | 142 kts | 308° |
| 2026-05-03 20:23 | 40.55809 | -73.57641 | 2209 ft | 142 kts | 303° |
| 2026-05-03 20:23 | 40.56342 | -73.58709 | 2059 ft | 137 kts | 304° |
| 2026-05-03 20:23 | 40.56864 | -73.59729 | 1986 ft | 136 kts | 304° |
| 2026-05-03 20:24 | 40.57380 | -73.60766 | 1919 ft | 130 kts | 304° |
| 2026-05-03 20:24 | 40.57878 | -73.61719 | 1910 ft | 128 kts | 304° |
| 2026-05-03 20:24 | 40.58360 | -73.62711 | 1902 ft | 129 kts | 302° |
| 2026-05-03 20:24 | 40.58830 | -73.63721 | 1909 ft | 128 kts | 302° |
| 2026-05-03 20:25 | 40.59281 | -73.64703 | 1908 ft | 125 kts | 302° |
| 2026-05-03 20:25 | 40.59732 | -73.65692 | 1887 ft | 129 kts | 302° |
| 2026-05-03 20:25 | 40.60197 | -73.66717 | 1724 ft | 130 kts | 302° |
| 2026-05-03 20:25 | 40.60655 | -73.67725 | 1514 ft | 126 kts | 302° |
| 2026-05-03 20:26 | 40.61106 | -73.68719 | 1352 ft | 127 kts | 302° |
| 2026-05-03 20:26 | 40.61557 | -73.69714 | 1187 ft | 129 kts | 301° |
| 2026-05-03 20:26 | 40.62012 | -73.70715 | 1022 ft | 126 kts | 301° |
| 2026-05-03 20:26 | 40.62454 | -73.71695 | 831 ft | 130 kts | 301° |
| 2026-05-03 20:27 | 40.62917 | -73.72714 | 661 ft | 129 kts | 301° |
| 2026-05-03 20:27 | 40.63361 | -73.73692 | 460 ft | 119 kts | 301° |
| 2026-05-03 20:27 | 40.63761 | -73.74605 | 239 ft | 112 kts | 300° |
| 2026-05-03 20:27 | 40.64170 | -73.75505 | 151 ft | 118 kts | 301° |
| 2026-05-03 20:28 | 40.64585 | -73.76414 | 42 ft | 112 kts | 301° |
| 2026-05-03 20:28 | 40.64930 | -73.77167 | 27 ft | 69 kts | 302° |
| 2026-05-03 20:28 | 40.65113 | -73.77563 | 29 ft | 45 kts | 301° |
| 2026-05-03 20:28 | 40.65205 | -73.77768 | 29 ft | 16 kts | 299° |
| 2026-05-03 20:29 | 40.65214 | -73.77907 | 29 ft | 12 kts | 239° |
| 2026-05-03 20:29 | 40.65186 | -73.77944 | 29 ft | 0 kts | 217° |
| 2026-05-03 20:30 | 40.65176 | -73.77947 | 28 ft | 7 kts | 192° |
| 2026-05-03 20:30 | 40.65140 | -73.77901 | 30 ft | 8 kts | 121° |
| 2026-05-03 20:30 | 40.65112 | -73.77839 | 29 ft | 8 kts | 121° |
| 2026-05-03 20:30 | 40.65072 | -73.77752 | 27 ft | 16 kts | 121° |
| 2026-05-03 20:31 | 40.65008 | -73.77612 | 27 ft | 19 kts | 121° |
| 2026-05-03 20:31 | 40.64942 | -73.77462 | 30 ft | 19 kts | 120° |
| 2026-05-03 20:31 | 40.64874 | -73.77313 | 29 ft | 19 kts | 121° |
| 2026-05-03 20:31 | 40.64805 | -73.77165 | 28 ft | 19 kts | 121° |
| 2026-05-03 20:32 | 40.64738 | -73.77015 | 31 ft | 19 kts | 120° |
| 2026-05-03 20:32 | 40.64651 | -73.76898 | 29 ft | 19 kts | 175° |
| 2026-05-03 20:32 | 40.64566 | -73.76960 | 28 ft | 9 kts | 257° |
| 2026-05-03 20:32 | 40.64572 | -73.77040 | 29 ft | 9 kts | 270° |
| 2026-05-03 20:33 | 40.64531 | -73.77089 | 30 ft | 9 kts | 186° |
| 2026-05-03 20:33 | 40.64469 | -73.77093 | 27 ft | 10 kts | 190° |
| 2026-05-03 20:33 | 40.64381 | -73.77145 | 29 ft | 15 kts | 210° |
| 2026-05-03 20:33 | 40.64291 | -73.77214 | 29 ft | 15 kts | 210° |
| 2026-05-03 20:34 | 40.64202 | -73.77283 | 31 ft | 15 kts | 211° |
| 2026-05-03 20:34 | 40.64113 | -73.77353 | 30 ft | 15 kts | 211° |
| 2026-05-03 20:34 | 40.64024 | -73.77422 | 27 ft | 15 kts | 211° |
| 2026-05-03 20:34 | 40.63934 | -73.77492 | 30 ft | 15 kts | 211° |
| 2026-05-03 20:35 | 40.63845 | -73.77562 | 30 ft | 14 kts | 211° |
| 2026-05-03 20:35 | 40.63776 | -73.77626 | 28 ft | 11 kts | 237° |
| 2026-05-03 20:35 | 40.63801 | -73.77709 | 26 ft | 11 kts | 327° |
| 2026-05-03 20:35 | 40.63864 | -73.77765 | 27 ft | 11 kts | 326° |
| 2026-05-03 20:36 | 40.63926 | -73.77822 | 28 ft | 11 kts | 326° |
| 2026-05-03 20:36 | 40.63992 | -73.77872 | 27 ft | 11 kts | 330° |
| 2026-05-03 20:36 | 40.64066 | -73.77881 | 28 ft | 11 kts | 0° |
| 2026-05-03 20:36 | 40.64135 | -73.77919 | 29 ft | 11 kts | 329° |
| 2026-05-03 20:37 | 40.64188 | -73.77955 | 29 ft | 5 kts | 344° |
| 2026-05-03 20:37 | 40.64223 | -73.77958 | 29 ft | 5 kts | 7° |
| 2026-05-03 20:37 | 40.64258 | -73.77950 | 30 ft | 2 kts | 10° |